Time;durP1;ratioP1;P1;durP2;ratioP2;P2;SDS_P1;SDS_P2;PMS_P1;PMS_P2;Temp;Humidity;BMP_temperature;BMP_pressure;BME280_temperature;BME280_humidity;BME280_pressure;Samples;Min_cycle;Max_cycle;Signal;HPM_P1;HPM_P2
2023/05/21 00:00:09;;;;;;;10.80;7.82;;;;;;;;;;6193922;28;20239;-89
2023/05/21 00:03:12;;;;;;;8.88;6.63;;;;;;;;;;6199623;28;20054;-91
2023/05/21 00:06:14;;;;;;;11.80;7.32;;;;;;;;;;6182299;28;20051;-90
2023/05/21 00:09:16;;;;;;;9.85;6.85;;;;;;;;;;6200603;28;20062;-88
2023/05/21 00:12:19;;;;;;;9.13;6.82;;;;;;;;;;6196490;28;20062;-90
2023/05/21 00:15:21;;;;;;;9.32;6.72;;;;;;;;;;6180298;28;20343;-87
2023/05/21 00:18:24;;;;;;;8.38;6.38;;;;;;;;;;6199653;28;20050;-90
2023/05/21 00:21:26;;;;;;;8.65;6.45;;;;;;;;;;6199143;28;20101;-90
2023/05/21 00:24:28;;;;;;;8.95;7.22;;;;;;;;;;6166960;28;20058;-89
2023/05/21 00:27:31;;;;;;;7.82;6.45;;;;;;;;;;6176154;28;20102;-87
2023/05/21 00:30:35;;;;;;;11.02;6.80;;;;;;;;;;6156754;28;20053;-83
2023/05/21 00:33:36;;;;;;;8.60;6.53;;;;;;;;;;6174054;28;20055;-81
2023/05/21 00:36:39;;;;;;;7.15;5.97;;;;;;;;;;6175026;28;20106;-80
2023/05/21 00:39:40;;;;;;;9.38;7.00;;;;;;;;;;6173374;28;20374;-81
2023/05/21 00:42:46;;;;;;;9.15;6.13;;;;;;;;;;6175998;28;21138;-84
2023/05/21 00:45:52;;;;;;;9.82;6.55;;;;;;;;;;6171528;28;20058;-85
2023/05/21 00:48:56;;;;;;;8.50;6.18;;;;;;;;;;6177409;28;20075;-84
2023/05/21 00:52:00;;;;;;;7.07;5.60;;;;;;;;;;6172517;28;20326;-82
2023/05/21 00:55:01;;;;;;;7.47;5.68;;;;;;;;;;6172158;28;20085;-83
2023/05/21 00:58:05;;;;;;;7.90;5.70;;;;;;;;;;6173150;28;21193;-84
2023/05/21 01:01:12;;;;;;;8.80;5.78;;;;;;;;;;6187115;28;20042;-84
2023/05/21 01:04:15;;;;;;;7.88;5.47;;;;;;;;;;6184097;28;20059;-83
2023/05/21 01:07:17;;;;;;;8.63;5.03;;;;;;;;;;6172172;28;20058;-84
2023/05/21 01:10:19;;;;;;;6.03;5.05;;;;;;;;;;6173719;28;20158;-85
2023/05/21 01:13:22;;;;;;;7.95;5.05;;;;;;;;;;6189469;28;20126;-85
2023/05/21 01:16:24;;;;;;;7.15;5.00;;;;;;;;;;6197491;28;20278;-86
2023/05/21 01:19:26;;;;;;;7.88;5.30;;;;;;;;;;6197930;28;20046;-84
2023/05/21 01:22:29;;;;;;;9.73;5.45;;;;;;;;;;6197245;28;20326;-84
2023/05/21 01:25:32;;;;;;;10.13;5.20;;;;;;;;;;6197986;28;20050;-85
2023/05/21 01:28:33;;;;;;;8.48;5.22;;;;;;;;;;6195623;28;20054;-85
2023/05/21 01:31:39;;;;;;;7.63;4.57;;;;;;;;;;6195676;28;20044;-85
2023/05/21 01:34:45;;;;;;;7.85;4.70;;;;;;;;;;6191888;28;20054;-84
2023/05/21 01:37:51;;;;;;;6.93;4.68;;;;;;;;;;6193886;28;20066;-84
2023/05/21 01:40:57;;;;;;;9.93;4.85;;;;;;;;;;6194912;28;20093;-83
2023/05/21 01:43:59;;;;;;;7.13;4.65;;;;;;;;;;6196471;28;20054;-81
2023/05/21 01:47:02;;;;;;;5.78;5.00;;;;;;;;;;6197577;28;20392;-84
2023/05/21 01:50:05;;;;;;;9.18;4.50;;;;;;;;;;6198720;28;20050;-85
2023/05/21 01:53:07;;;;;;;7.43;4.57;;;;;;;;;;6195839;28;20113;-80
2023/05/21 01:56:21;;;;;;;5.93;3.92;;;;;;;;;;6197804;28;20058;-89
2023/05/21 01:59:24;;;;;;;5.50;4.50;;;;;;;;;;6180799;28;20058;-88
2023/05/21 02:02:26;;;;;;;6.30;4.00;;;;;;;;;;6200168;28;20059;-90
2023/05/21 02:05:28;;;;;;;7.30;4.18;;;;;;;;;;6181777;28;20050;-90
2023/05/21 02:08:30;;;;;;;6.65;3.95;;;;;;;;;;6198007;28;20062;-90
2023/05/21 02:11:40;;;;;;;6.20;3.92;;;;;;;;;;6185771;28;20057;-88
2023/05/21 02:14:41;;;;;;;8.18;4.20;;;;;;;;;;6184200;28;20331;-88
2023/05/21 02:17:43;;;;;;;5.05;3.90;;;;;;;;;;6197769;28;20050;-89
2023/05/21 02:20:45;;;;;;;7.20;4.05;;;;;;;;;;6181764;28;20061;-90
2023/05/21 02:23:47;;;;;;;5.65;4.32;;;;;;;;;;6182897;28;20062;-90
2023/05/21 02:26:51;;;;;;;5.35;3.70;;;;;;;;;;6197152;28;20054;-88
2023/05/21 02:29:53;;;;;;;6.38;3.72;;;;;;;;;;6194573;28;20050;-87
2023/05/21 02:32:57;;;;;;;6.00;3.60;;;;;;;;;;6194745;28;20047;-87
2023/05/21 02:36:00;;;;;;;5.78;3.78;;;;;;;;;;6193750;28;20126;-90
2023/05/21 02:42:20;;;;;;;5.53;3.78;;;;;;;;;;6196603;28;20050;-89
2023/05/21 02:45:22;;;;;;;7.90;3.72;;;;;;;;;;6199486;28;20247;-89
2023/05/21 02:48:24;;;;;;;5.43;3.42;;;;;;;;;;6197998;28;20074;-88
2023/05/21 02:51:25;;;;;;;10.15;3.92;;;;;;;;;;6181061;28;20050;-89
2023/05/21 02:54:27;;;;;;;5.55;3.10;;;;;;;;;;6182552;28;20209;-88
2023/05/21 03:00:46;;;;;;;8.60;4.88;;;;;;;;;;6198395;28;20243;-88
2023/05/21 03:03:49;;;;;;;5.85;3.47;;;;;;;;;;6184017;28;20254;-88
2023/05/21 03:06:54;;;;;;;5.53;3.53;;;;;;;;;;6198095;28;20133;-88
2023/05/21 03:09:56;;;;;;;5.70;3.72;;;;;;;;;;6197072;28;20042;-89
2023/05/21 03:13:03;;;;;;;5.43;3.17;;;;;;;;;;6197035;28;20323;-90
2023/05/21 03:16:06;;;;;;;6.88;3.85;;;;;;;;;;6197373;28;20045;-89
2023/05/21 03:19:08;;;;;;;5.88;4.28;;;;;;;;;;6196471;28;20077;-89
2023/05/21 03:22:10;;;;;;;7.82;4.28;;;;;;;;;;6202985;28;20046;-88
2023/05/21 03:25:13;;;;;;;8.68;4.60;;;;;;;;;;6204480;28;20064;-89
2023/05/21 03:28:20;;;;;;;7.93;3.77;;;;;;;;;;6203896;28;20162;-90
2023/05/21 03:31:24;;;;;;;9.27;4.43;;;;;;;;;;6186771;28;20046;-90
2023/05/21 03:34:26;;;;;;;5.35;4.18;;;;;;;;;;6203286;28;20086;-89
2023/05/21 03:37:28;;;;;;;5.75;4.72;;;;;;;;;;6201752;28;20346;-90
2023/05/21 03:40:29;;;;;;;7.07;4.40;;;;;;;;;;6203832;28;20339;-90
2023/05/21 03:43:37;;;;;;;7.35;4.95;;;;;;;;;;6198421;28;20047;-90
2023/05/21 03:46:39;;;;;;;8.00;5.60;;;;;;;;;;6187408;28;20234;-90
2023/05/21 03:49:40;;;;;;;9.10;6.30;;;;;;;;;;6198621;28;20046;-90
2023/05/21 03:52:42;;;;;;;10.23;6.32;;;;;;;;;;6199214;28;20117;-89
2023/05/21 03:59:01;;;;;;;8.95;5.97;;;;;;;;;;6202690;28;20062;-90
2023/05/21 04:02:04;;;;;;;8.65;6.28;;;;;;;;;;6197741;28;20109;-90
2023/05/21 04:05:08;;;;;;;8.40;6.82;;;;;;;;;;6201518;28;20050;-89
2023/05/21 04:11:28;;;;;;;7.97;6.22;;;;;;;;;;6199054;28;20089;-90
2023/05/21 04:14:40;;;;;;;9.98;7.07;;;;;;;;;;6203380;28;20345;-90
2023/05/21 04:17:44;;;;;;;9.82;6.82;;;;;;;;;;6200349;28;20080;-91
2023/05/21 04:20:50;;;;;;;10.93;8.43;;;;;;;;;;6199121;28;20061;-89
2023/05/21 04:23:53;;;;;;;9.88;8.00;;;;;;;;;;6200605;28;20054;-87
2023/05/21 04:26:56;;;;;;;9.63;6.70;;;;;;;;;;6197135;28;20382;-88
2023/05/21 04:29:59;;;;;;;8.43;6.40;;;;;;;;;;6201236;28;20117;-88
2023/05/21 04:33:01;;;;;;;10.90;6.40;;;;;;;;;;6200401;28;20050;-90
2023/05/21 04:36:03;;;;;;;8.70;6.20;;;;;;;;;;6198060;28;20058;-87
2023/05/21 04:39:06;;;;;;;8.48;5.95;;;;;;;;;;6199947;28;20054;-89
2023/05/21 04:42:09;;;;;;;7.55;5.60;;;;;;;;;;6201568;28;20057;-89
2023/05/21 04:48:29;;;;;;;6.80;5.57;;;;;;;;;;6198491;28;20054;-89
2023/05/21 04:51:32;;;;;;;7.25;5.85;;;;;;;;;;6201244;28;20053;-89
2023/05/21 04:54:35;;;;;;;12.13;6.13;;;;;;;;;;6196501;28;20046;-88
2023/05/21 04:57:37;;;;;;;7.78;5.85;;;;;;;;;;6196276;28;20058;-89
2023/05/21 05:00:41;;;;;;;8.88;6.38;;;;;;;;;;6197042;28;20092;-90
2023/05/21 05:03:43;;;;;;;8.52;6.53;;;;;;;;;;6182028;28;20070;-89
2023/05/21 05:06:45;;;;;;;7.75;6.20;;;;;;;;;;6196180;28;20066;-88
2023/05/21 05:09:46;;;;;;;7.00;5.95;;;;;;;;;;6196379;28;20061;-88
2023/05/21 05:12:57;;;;;;;9.45;6.50;;;;;;;;;;6200560;28;20342;-87
2023/05/21 05:16:11;;;;;;;7.18;5.95;;;;;;;;;;6198129;28;20046;-89
2023/05/21 05:19:14;;;;;;;7.20;6.00;;;;;;;;;;6197627;28;20062;-88
2023/05/21 05:22:16;;;;;;;5.47;4.65;;;;;;;;;;6199954;28;20430;-87
2023/05/21 05:25:23;;;;;;;6.15;4.75;;;;;;;;;;6197398;28;20364;-89
2023/05/21 05:28:25;;;;;;;6.00;3.95;;;;;;;;;;6200192;28;20137;-89
2023/05/21 05:31:36;;;;;;;7.63;4.13;;;;;;;;;;6199028;28;20054;-88
2023/05/21 05:34:38;;;;;;;5.25;4.03;;;;;;;;;;6198398;28;20046;-89
2023/05/21 05:37:40;;;;;;;7.10;4.13;;;;;;;;;;6199573;28;20050;-92
2023/05/21 05:40:43;;;;;;;5.10;4.00;;;;;;;;;;6200919;28;20126;-87
2023/05/21 05:43:45;;;;;;;6.22;3.90;;;;;;;;;;6197007;28;20042;-88
2023/05/21 05:47:12;;;;;;;4.63;4.00;;;;;;;;;;6198950;28;20176;-88
2023/05/21 05:50:14;;;;;;;6.57;4.30;;;;;;;;;;6198972;28;20049;-87
2023/05/21 05:53:17;;;;;;;10.07;4.28;;;;;;;;;;6199173;28;20101;-89
2023/05/21 05:56:20;;;;;;;8.15;4.30;;;;;;;;;;6197454;28;20054;-89
2023/05/21 05:59:22;;;;;;;;;;;;;;;;;;6200574;28;20112;-89
2023/05/21 06:02:25;;;;;;;8.50;3.88;;;;;;;;;;6198410;28;20224;-89
2023/05/21 06:05:27;;;;;;;5.55;4.38;;;;;;;;;;6197619;28;20058;-89
2023/05/21 06:08:29;;;;;;;4.97;3.95;;;;;;;;;;6198841;28;20575;-89
2023/05/21 06:11:31;;;;;;;4.80;3.10;;;;;;;;;;6197286;28;20061;-88
2023/05/21 06:14:33;;;;;;;4.95;3.08;;;;;;;;;;6199496;28;20314;-90
2023/05/21 06:17:43;;;;;;;3.70;3.10;;;;;;;;;;6197694;28;20072;-89
2023/05/21 06:20:46;;;;;;;3.33;2.78;;;;;;;;;;6200419;28;20352;-88
2023/05/21 06:23:50;;;;;;;4.70;2.70;;;;;;;;;;6193650;28;20314;-90
2023/05/21 06:26:51;;;;;;;;;;;;;;;;;;6194758;28;20063;-89
2023/05/21 06:29:57;;;;;;;3.50;2.67;;;;;;;;;;6182821;28;19933;-90
2023/05/21 06:36:20;;;;;;;3.42;2.10;;;;;;;;;;6197800;28;20054;-90
2023/05/21 06:39:23;;;;;;;2.40;1.90;;;;;;;;;;6199334;28;20106;-87
2023/05/21 06:42:25;;;;;;;3.60;1.70;;;;;;;;;;6198669;28;20055;-90
2023/05/21 06:45:36;;;;;;;2.85;2.13;;;;;;;;;;6196067;28;20054;-88
2023/05/21 06:48:39;;;;;;;2.55;1.40;;;;;;;;;;6197237;28;20105;-89
2023/05/21 06:51:42;;;;;;;2.30;1.63;;;;;;;;;;6194518;28;20046;-87
2023/05/21 06:54:47;;;;;;;3.90;1.50;;;;;;;;;;6199473;28;20047;-88
2023/05/21 06:58:02;;;;;;;3.40;2.13;;;;;;;;;;6200063;28;20058;-87
2023/05/21 07:01:06;;;;;;;3.58;1.80;;;;;;;;;;6200021;28;20054;-87
2023/05/21 07:07:33;;;;;;;7.32;1.60;;;;;;;;;;6199593;28;20054;-87
2023/05/21 07:10:37;;;;;;;2.10;1.50;;;;;;;;;;6201271;28;20057;-89
2023/05/21 07:13:39;;;;;;;1.88;1.30;;;;;;;;;;6199477;28;20058;-88
2023/05/21 07:16:41;;;;;;;3.70;1.40;;;;;;;;;;6201783;28;20326;-88
2023/05/21 07:23:00;;;;;;;1.55;1.30;;;;;;;;;;6202510;28;20126;-90
2023/05/21 07:26:04;;;;;;;1.77;1.27;;;;;;;;;;6201353;28;20105;-90
2023/05/21 07:29:22;;;;;;;2.15;1.20;;;;;;;;;;6200730;28;20362;-90
2023/05/21 07:32:31;;;;;;;3.00;1.35;;;;;;;;;;6200684;28;20110;-88
2023/05/21 07:39:00;;;;;;;3.53;1.38;;;;;;;;;;6197169;28;20046;-85
2023/05/21 07:42:02;;;;;;;2.25;1.25;;;;;;;;;;6203874;28;20057;-87
2023/05/21 07:45:05;;;;;;;1.70;1.33;;;;;;;;;;6200856;28;20097;-88
2023/05/21 07:48:06;;;;;;;2.42;1.30;;;;;;;;;;6201171;28;20126;-86
2023/05/21 07:51:14;;;;;;;3.90;1.45;;;;;;;;;;6198845;28;20058;-86
2023/05/21 07:54:15;;;;;;;2.22;1.38;;;;;;;;;;6196217;28;20347;-86
2023/05/21 07:57:17;;;;;;;1.80;1.30;;;;;;;;;;6198986;28;20102;-86
2023/05/21 08:00:19;;;;;;;2.08;1.70;;;;;;;;;;6203350;28;20050;-87
2023/05/21 08:03:21;;;;;;;2.13;1.60;;;;;;;;;;6199418;28;20126;-84
2023/05/21 08:06:25;;;;;;;3.78;1.65;;;;;;;;;;6202640;28;20085;-87
2023/05/21 08:09:27;;;;;;;3.53;1.30;;;;;;;;;;6198240;28;20318;-87
2023/05/21 08:12:29;;;;;;;5.35;1.70;;;;;;;;;;6200355;28;20281;-86
2023/05/21 08:15:31;;;;;;;6.38;2.25;;;;;;;;;;6197895;28;20038;-88
2023/05/21 08:18:32;;;;;;;3.10;1.70;;;;;;;;;;6202737;28;20054;-86
2023/05/21 08:21:35;;;;;;;2.55;1.88;;;;;;;;;;6200707;28;20061;-83
2023/05/21 08:24:37;;;;;;;2.08;1.42;;;;;;;;;;6199490;28;20314;-86
2023/05/21 08:27:39;;;;;;;2.70;1.70;;;;;;;;;;6200973;28;20061;-86
2023/05/21 08:30:41;;;;;;;2.33;1.63;;;;;;;;;;6198769;28;20374;-88
2023/05/21 08:33:50;;;;;;;2.85;1.80;;;;;;;;;;6197426;28;20278;-86
2023/05/21 08:36:53;;;;;;;3.63;1.90;;;;;;;;;;6197617;28;20108;-84
2023/05/21 08:39:55;;;;;;;2.20;1.63;;;;;;;;;;6195384;28;20093;-84
2023/05/21 08:42:59;;;;;;;5.25;1.88;;;;;;;;;;6200005;28;20053;-84
2023/05/21 08:46:00;;;;;;;;;;;;;;;;;;6189828;28;20058;-86
2023/05/21 08:49:03;;;;;;;4.88;2.50;;;;;;;;;;6197161;28;19926;-86
2023/05/21 08:52:07;;;;;;;5.20;2.42;;;;;;;;;;6195971;28;20129;-87
2023/05/21 08:55:09;;;;;;;3.70;2.33;;;;;;;;;;6197263;28;20078;-86
2023/05/21 08:58:11;;;;;;;2.90;2.15;;;;;;;;;;6196330;28;20066;-86
2023/05/21 09:01:13;;;;;;;3.63;2.75;;;;;;;;;;6195908;28;20050;-86
2023/05/21 09:04:16;;;;;;;3.97;2.60;;;;;;;;;;6196428;28;20065;-88
2023/05/21 09:07:19;;;;;;;4.43;2.77;;;;;;;;;;6197766;28;20050;-85
2023/05/21 09:10:24;;;;;;;3.92;2.83;;;;;;;;;;6197448;28;20481;-85
2023/05/21 09:13:26;;;;;;;3.40;2.60;;;;;;;;;;6205812;28;20114;-84
2023/05/21 09:16:28;;;;;;;4.38;2.65;;;;;;;;;;6197913;28;20104;-84
2023/05/21 09:19:30;;;;;;;4.07;3.08;;;;;;;;;;6193922;28;20393;-86
2023/05/21 09:22:34;;;;;;;4.20;3.17;;;;;;;;;;6199485;28;20226;-86
2023/05/21 09:25:38;;;;;;;4.18;3.13;;;;;;;;;;6197873;28;20088;-86
2023/05/21 09:28:39;;;;;;;4.60;3.03;;;;;;;;;;6197884;28;20105;-85
2023/05/21 09:31:43;;;;;;;6.82;3.88;;;;;;;;;;6195300;28;20061;-87
2023/05/21 09:34:45;;;;;;;5.07;3.25;;;;;;;;;;6200010;28;20282;-86
2023/05/21 09:37:51;;;;;;;5.03;3.70;;;;;;;;;;6198963;28;20065;-86
2023/05/21 09:40:55;;;;;;;6.63;3.45;;;;;;;;;;6196603;28;20066;-86
2023/05/21 09:43:59;;;;;;;4.60;3.58;;;;;;;;;;6197774;28;20050;-86
2023/05/21 09:47:02;;;;;;;4.72;3.60;;;;;;;;;;6198097;28;20121;-86
2023/05/21 09:50:04;;;;;;;5.93;4.03;;;;;;;;;;6194012;28;20089;-88
2023/05/21 09:53:13;;;;;;;4.72;3.75;;;;;;;;;;6197164;28;20169;-87
2023/05/21 09:56:15;;;;;;;4.78;3.80;;;;;;;;;;6199623;28;20254;-85
2023/05/21 09:59:17;;;;;;;4.88;4.15;;;;;;;;;;6195927;28;20058;-84
2023/05/21 10:02:20;;;;;;;4.65;3.65;;;;;;;;;;6199164;28;20089;-84
2023/05/21 10:05:26;;;;;;;6.93;3.72;;;;;;;;;;6195933;28;20069;-87
2023/05/21 10:08:32;;;;;;;6.50;3.85;;;;;;;;;;6195384;28;20157;-86
2023/05/21 10:11:35;;;;;;;4.72;3.88;;;;;;;;;;6194821;28;20057;-86
2023/05/21 10:14:37;;;;;;;5.05;3.83;;;;;;;;;;6198926;28;20046;-85
2023/05/21 10:17:39;;;;;;;7.03;4.07;;;;;;;;;;6194651;28;20046;-87
2023/05/21 10:20:41;;;;;;;4.93;4.13;;;;;;;;;;6196121;28;20062;-85
2023/05/21 10:23:55;;;;;;;5.55;4.40;;;;;;;;;;6194094;28;20081;-86
2023/05/21 10:26:57;;;;;;;3.83;3.30;;;;;;;;;;6198425;28;20280;-84
2023/05/21 10:29:59;;;;;;;4.90;4.20;;;;;;;;;;6195123;28;20058;-86
2023/05/21 10:33:01;;;;;;;5.00;4.03;;;;;;;;;;6200985;28;20046;-85
2023/05/21 10:36:04;;;;;;;4.78;3.95;;;;;;;;;;6200744;28;20070;-85
2023/05/21 10:39:08;;;;;;;6.32;4.50;;;;;;;;;;6200413;28;20058;-85
2023/05/21 10:42:20;;;;;;;5.80;4.90;;;;;;;;;;6202052;28;20239;-84
2023/05/21 10:45:32;;;;;;;6.78;4.38;;;;;;;;;;6202050;28;20046;-85
2023/05/21 10:48:52;;;;;;;12.13;5.05;;;;;;;;;;6201760;28;20274;-85
2023/05/21 10:52:01;;;;;;;6.05;4.63;;;;;;;;;;6198792;28;20054;-87
2023/05/21 10:55:41;;;;;;;7.85;3.97;;;;;;;;;;6201689;28;20290;-86
2023/05/21 10:58:55;;;;;;;5.30;4.80;;;;;;;;;;6201436;28;20046;-84
2023/05/21 11:01:57;;;;;;;6.65;4.95;;;;;;;;;;6201521;28;20121;-84
2023/05/21 11:05:06;;;;;;;7.43;4.97;;;;;;;;;;6200284;28;21837;-85
2023/05/21 11:08:24;;;;;;;6.45;5.22;;;;;;;;;;6198984;28;20034;-86
2023/05/21 11:11:47;;;;;;;7.25;5.10;;;;;;;;;;6200334;28;20354;-87
2023/05/21 11:14:57;;;;;;;5.85;5.20;;;;;;;;;;6200462;28;20330;-85
2023/05/21 11:17:58;;;;;;;6.50;5.40;;;;;;;;;;6189168;28;20056;-87
2023/05/21 11:21:04;;;;;;;5.93;4.90;;;;;;;;;;6201830;28;20121;-85
2023/05/21 11:24:09;;;;;;;5.20;4.78;;;;;;;;;;6202701;28;20061;-87
2023/05/21 11:27:12;;;;;;;5.63;4.78;;;;;;;;;;6202722;28;20051;-84
2023/05/21 11:30:18;;;;;;;6.05;5.10;;;;;;;;;;6200124;28;20061;-84
2023/05/21 11:33:20;;;;;;;6.05;4.90;;;;;;;;;;6203339;28;20076;-83
2023/05/21 11:36:22;;;;;;;10.02;4.93;;;;;;;;;;6199908;28;20058;-86
2023/05/21 11:39:26;;;;;;;6.03;5.10;;;;;;;;;;6199859;28;20463;-83
2023/05/21 11:42:33;;;;;;;5.97;4.68;;;;;;;;;;6197360;28;20050;-84
2023/05/21 11:45:35;;;;;;;6.38;5.10;;;;;;;;;;6197238;28;20093;-84
2023/05/21 11:48:37;;;;;;;6.10;4.70;;;;;;;;;;6200609;28;20154;-86
2023/05/21 11:51:40;;;;;;;5.43;4.83;;;;;;;;;;6197135;28;20058;-83
2023/05/21 11:54:45;;;;;;;4.63;4.07;;;;;;;;;;6197386;28;20054;-83
2023/05/21 11:57:48;;;;;;;4.88;3.88;;;;;;;;;;6200335;28;20058;-85
2023/05/21 12:00:51;;;;;;;6.13;4.57;;;;;;;;;;6199445;28;20060;-85
2023/05/21 12:03:53;;;;;;;4.32;3.92;;;;;;;;;;6196353;28;20116;-88
2023/05/21 12:06:57;;;;;;;4.60;4.10;;;;;;;;;;6199848;28;20053;-83
2023/05/21 12:10:00;;;;;;;5.20;4.70;;;;;;;;;;6199414;28;20058;-86
2023/05/21 12:13:05;;;;;;;7.40;4.60;;;;;;;;;;6195734;28;20065;-83
2023/05/21 12:16:08;;;;;;;4.57;4.18;;;;;;;;;;6176875;28;20062;-82
2023/05/21 12:19:10;;;;;;;5.03;4.53;;;;;;;;;;6192663;28;20063;-84
2023/05/21 12:22:12;;;;;;;4.63;4.22;;;;;;;;;;6197886;28;20061;-85
2023/05/21 12:25:13;;;;;;;5.30;4.65;;;;;;;;;;6179635;28;20062;-84
2023/05/21 12:28:17;;;;;;;4.55;4.03;;;;;;;;;;6173115;28;20065;-82
2023/05/21 12:31:19;;;;;;;5.18;4.68;;;;;;;;;;6173285;28;20104;-83
2023/05/21 12:34:41;;;;;;;6.47;4.93;;;;;;;;;;6185781;28;20114;-82
2023/05/21 12:37:43;;;;;;;6.03;5.43;;;;;;;;;;6176193;28;20098;-85
2023/05/21 12:40:45;;;;;;;7.20;5.40;;;;;;;;;;6170819;28;20134;-85
2023/05/21 12:43:48;;;;;;;7.13;5.22;;;;;;;;;;6173759;28;20051;-84
2023/05/21 12:46:51;;;;;;;5.68;4.90;;;;;;;;;;6169654;28;20098;-84
2023/05/21 12:49:57;;;;;;;7.18;5.78;;;;;;;;;;6171144;28;20327;-84
2023/05/21 12:53:00;;;;;;;6.28;5.28;;;;;;;;;;6173010;28;20311;-87
2023/05/21 12:56:08;;;;;;;6.00;5.00;;;;;;;;;;6174008;28;20058;-84
2023/05/21 13:02:34;;;;;;;7.78;5.78;;;;;;;;;;6171980;28;20112;-84
2023/05/21 13:05:40;;;;;;;5.65;5.07;;;;;;;;;;6170699;28;20051;-86
2023/05/21 13:08:42;;;;;;;5.78;5.13;;;;;;;;;;6187313;28;20072;-86
2023/05/21 13:11:44;;;;;;;5.87;5.27;;;;;;;;;;6196114;28;20270;-83
2023/05/21 13:14:47;;;;;;;5.72;4.95;;;;;;;;;;6196788;28;20058;-85
2023/05/21 13:17:49;;;;;;;5.50;4.97;;;;;;;;;;6193393;28;20050;-84
2023/05/21 13:20:51;;;;;;;4.82;4.40;;;;;;;;;;6195612;28;20347;-85
2023/05/21 13:23:53;;;;;;;6.72;4.55;;;;;;;;;;6195455;28;20070;-85
2023/05/21 13:26:55;;;;;;;5.22;4.57;;;;;;;;;;6197620;28;20085;-84
2023/05/21 13:29:58;;;;;;;6.93;4.80;;;;;;;;;;6192172;28;20038;-87
2023/05/21 13:33:00;;;;;;;5.47;4.30;;;;;;;;;;6194839;28;20058;-85
2023/05/21 13:36:01;;;;;;;5.65;4.60;;;;;;;;;;6194234;28;20250;-85
2023/05/21 13:39:03;;;;;;;4.90;4.40;;;;;;;;;;6197052;28;20162;-86
2023/05/21 13:42:05;;;;;;;5.75;5.18;;;;;;;;;;6195220;28;20049;-86
2023/05/21 13:45:11;;;;;;;6.35;4.68;;;;;;;;;;6193151;28;20098;-86
2023/05/21 13:48:12;;;;;;;6.35;4.43;;;;;;;;;;6197733;28;20070;-83
2023/05/21 13:51:14;;;;;;;5.97;5.03;;;;;;;;;;6194244;28;20063;-82
2023/05/21 13:54:16;;;;;;;6.07;5.40;;;;;;;;;;6187491;28;22295;-82
2023/05/21 13:57:17;;;;;;;6.63;5.33;;;;;;;;;;6191693;28;20592;-82
2023/05/21 14:00:21;;;;;;;5.40;4.90;;;;;;;;;;6192976;28;20519;-83
2023/05/21 14:03:22;;;;;;;6.45;5.30;;;;;;;;;;6192446;28;20334;-82
2023/05/21 14:06:24;;;;;;;6.57;4.80;;;;;;;;;;6197886;28;20062;-80
2023/05/21 14:09:26;;;;;;;5.38;4.57;;;;;;;;;;6193785;28;20082;-83
2023/05/21 14:12:28;;;;;;;5.63;4.55;;;;;;;;;;6192862;28;20211;-84
2023/05/21 14:15:31;;;;;;;8.98;4.80;;;;;;;;;;6193475;28;20339;-83
2023/05/21 14:18:33;;;;;;;7.40;4.88;;;;;;;;;;6190593;28;20061;-84
2023/05/21 14:21:34;;;;;;;7.57;4.80;;;;;;;;;;6190261;28;20116;-78
2023/05/21 14:24:36;;;;;;;5.20;4.70;;;;;;;;;;6182515;28;20062;-78
2023/05/21 14:27:38;;;;;;;5.07;4.38;;;;;;;;;;6186352;28;20230;-78
2023/05/21 14:30:41;;;;;;;6.75;5.32;;;;;;;;;;6183300;28;20216;-82
2023/05/21 14:33:42;;;;;;;5.72;4.53;;;;;;;;;;6185669;28;20113;-79
2023/05/21 14:36:44;;;;;;;6.03;5.05;;;;;;;;;;6183043;28;20061;-80
2023/05/21 14:39:48;;;;;;;;;;;;;;;;;;6161423;28;20365;-80
2023/05/21 14:42:54;;;;;;;5.85;4.75;;;;;;;;;;6177523;28;19940;-81
2023/05/21 14:45:57;;;;;;;5.00;4.53;;;;;;;;;;6191612;28;20274;-80
2023/05/21 14:48:59;;;;;;;5.95;4.28;;;;;;;;;;6192525;28;20094;-80
2023/05/21 14:52:01;;;;;;;5.95;4.95;;;;;;;;;;6192441;28;20054;-82
2023/05/21 14:55:03;;;;;;;5.28;4.72;;;;;;;;;;6194788;28;20328;-81
2023/05/21 14:58:07;;;;;;;6.07;4.60;;;;;;;;;;6196233;28;20401;-81
2023/05/21 15:01:10;;;;;;;5.05;4.55;;;;;;;;;;6190899;28;20116;-80
2023/05/21 15:04:12;;;;;;;6.88;4.90;;;;;;;;;;6191974;28;20046;-82
2023/05/21 15:07:16;;;;;;;7.87;5.20;;;;;;;;;;6192799;28;20050;-81
2023/05/21 15:10:18;;;;;;;5.35;4.85;;;;;;;;;;6193617;28;20066;-78
2023/05/21 15:13:20;;;;;;;5.63;5.05;;;;;;;;;;6189992;28;20076;-80
2023/05/21 15:16:23;;;;;;;6.28;5.20;;;;;;;;;;6192315;28;20591;-82
2023/05/21 15:19:25;;;;;;;6.15;5.28;;;;;;;;;;6195338;28;20046;-81
2023/05/21 15:22:27;;;;;;;6.30;5.38;;;;;;;;;;6197657;28;20055;-81
2023/05/21 15:25:28;;;;;;;6.35;5.75;;;;;;;;;;6196252;28;20054;-81
2023/05/21 15:28:30;;;;;;;5.20;4.70;;;;;;;;;;6196809;28;20072;-80
2023/05/21 15:31:33;;;;;;;5.88;4.90;;;;;;;;;;6196570;28;20054;-89
2023/05/21 15:34:35;;;;;;;6.32;5.50;;;;;;;;;;6198087;28;20054;-80
2023/05/21 15:37:37;;;;;;;6.85;5.55;;;;;;;;;;6196906;28;20050;-84
2023/05/21 15:40:40;;;;;;;7.30;5.70;;;;;;;;;;6193056;28;20073;-81
2023/05/21 15:43:42;;;;;;;6.45;5.38;;;;;;;;;;6195689;28;20050;-85
2023/05/21 15:46:45;;;;;;;6.40;5.68;;;;;;;;;;6196197;28;20116;-80
2023/05/21 15:49:46;;;;;;;8.55;5.75;;;;;;;;;;6196870;28;20065;-80
2023/05/21 15:52:48;;;;;;;8.43;5.95;;;;;;;;;;6194476;28;20055;-81
2023/05/21 15:55:50;;;;;;;7.70;5.65;;;;;;;;;;6196165;28;20227;-80
2023/05/21 15:58:51;;;;;;;6.75;5.70;;;;;;;;;;6198017;28;20070;-83
2023/05/21 16:01:55;;;;;;;7.05;6.00;;;;;;;;;;6192386;28;21005;-81
2023/05/21 16:04:57;;;;;;;6.45;5.68;;;;;;;;;;6196437;28;20062;-82
2023/05/21 16:07:59;;;;;;;9.77;5.95;;;;;;;;;;6195199;28;20343;-82
2023/05/21 16:11:01;;;;;;;8.10;5.97;;;;;;;;;;6198972;28;20238;-84
2023/05/21 16:14:02;;;;;;;10.15;6.15;;;;;;;;;;6196205;28;20622;-85
2023/05/21 16:17:06;;;;;;;6.22;5.63;;;;;;;;;;6196516;28;20055;-85
2023/05/21 16:20:08;;;;;;;6.35;5.57;;;;;;;;;;6195407;28;20042;-86
2023/05/21 16:23:11;;;;;;;8.18;5.97;;;;;;;;;;6194805;28;20109;-84
2023/05/21 16:26:12;;;;;;;9.77;6.03;;;;;;;;;;6193734;28;20113;-82
2023/05/21 16:29:14;;;;;;;8.45;6.68;;;;;;;;;;6194872;28;20109;-84
2023/05/21 16:32:17;;;;;;;9.57;6.00;;;;;;;;;;6197230;28;20066;-84
2023/05/21 16:35:19;;;;;;;8.98;5.60;;;;;;;;;;6195715;28;20070;-82
2023/05/21 16:38:21;;;;;;;7.05;6.20;;;;;;;;;;6195845;28;20109;-84
2023/05/21 16:41:23;;;;;;;7.60;6.30;;;;;;;;;;6193012;28;20307;-82
2023/05/21 16:44:25;;;;;;;6.60;5.60;;;;;;;;;;6171208;28;20050;-84
2023/05/21 16:47:28;;;;;;;9.40;6.45;;;;;;;;;;6171593;28;20051;-83
2023/05/21 16:50:30;;;;;;;9.52;6.20;;;;;;;;;;6181440;28;20125;-84
2023/05/21 16:53:32;;;;;;;7.50;6.03;;;;;;;;;;6172164;28;20267;-83
2023/05/21 16:56:34;;;;;;;7.55;6.30;;;;;;;;;;6169914;28;20130;-81
2023/05/21 16:59:36;;;;;;;7.38;6.45;;;;;;;;;;6155119;28;20338;-79
2023/05/21 17:02:39;;;;;;;8.68;6.88;;;;;;;;;;6169055;28;20055;-86
2023/05/21 17:05:41;;;;;;;6.70;6.03;;;;;;;;;;6168235;28;20078;-83
2023/05/21 17:08:43;;;;;;;8.45;6.32;;;;;;;;;;6181337;28;20062;-84
2023/05/21 17:11:45;;;;;;;9.05;6.72;;;;;;;;;;6170539;28;20113;-84
2023/05/21 17:14:46;;;;;;;7.72;6.20;;;;;;;;;;6172244;28;20102;-84
2023/05/21 17:17:50;;;;;;;6.95;5.85;;;;;;;;;;6167546;28;20046;-87
2023/05/21 17:20:51;;;;;;;8.20;5.75;;;;;;;;;;6170446;28;20106;-83
2023/05/21 17:23:53;;;;;;;7.43;6.00;;;;;;;;;;6169577;28;20250;-82
2023/05/21 17:26:55;;;;;;;7.15;6.22;;;;;;;;;;6171910;28;20142;-86
2023/05/21 17:29:57;;;;;;;8.13;6.15;;;;;;;;;;6165055;28;20054;-80
2023/05/21 17:33:00;;;;;;;8.18;6.35;;;;;;;;;;6171258;28;20050;-82
2023/05/21 17:36:02;;;;;;;7.65;6.38;;;;;;;;;;6188912;28;20109;-77
2023/05/21 17:39:04;;;;;;;11.25;6.80;;;;;;;;;;6167399;28;20110;-79
2023/05/21 17:42:06;;;;;;;9.50;6.28;;;;;;;;;;6167992;28;20063;-78
2023/05/21 17:45:08;;;;;;;8.45;6.63;;;;;;;;;;6169882;28;20137;-79
2023/05/21 17:48:11;;;;;;;8.70;6.35;;;;;;;;;;6172022;28;20043;-77
2023/05/21 17:51:13;;;;;;;7.43;6.32;;;;;;;;;;6171896;28;20323;-78
2023/05/21 17:54:15;;;;;;;9.43;7.35;;;;;;;;;;6170030;28;20051;-77
2023/05/21 17:57:18;;;;;;;11.30;7.20;;;;;;;;;;6170573;28;20063;-78
2023/05/21 18:00:21;;;;;;;7.13;6.10;;;;;;;;;;6176718;28;20275;-78
2023/05/21 18:03:24;;;;;;;7.82;6.40;;;;;;;;;;6194195;28;20061;-79
2023/05/21 18:06:27;;;;;;;7.63;5.63;;;;;;;;;;6170437;28;20162;-77
2023/05/21 18:09:29;;;;;;;9.93;6.90;;;;;;;;;;6169934;28;20043;-78
2023/05/21 18:12:30;;;;;;;9.30;6.47;;;;;;;;;;6172550;28;20262;-78
2023/05/21 18:15:33;;;;;;;9.05;6.88;;;;;;;;;;6170371;28;20062;-78
2023/05/21 18:18:36;;;;;;;10.88;7.15;;;;;;;;;;6171696;28;20082;-78
2023/05/21 18:21:37;;;;;;;9.15;7.10;;;;;;;;;;6168840;28;20377;-78
2023/05/21 18:24:39;;;;;;;10.05;7.00;;;;;;;;;;6172422;28;20051;-78
2023/05/21 18:27:41;;;;;;;8.90;6.20;;;;;;;;;;6165490;28;20129;-79
2023/05/21 18:30:43;;;;;;;12.48;8.77;;;;;;;;;;6171208;28;20294;-91
2023/05/21 18:33:46;;;;;;;8.82;7.38;;;;;;;;;;6172208;28;20246;-84
2023/05/21 18:36:47;;;;;;;10.90;7.15;;;;;;;;;;6149100;28;20095;-85
2023/05/21 18:39:49;;;;;;;18.90;10.50;;;;;;;;;;6166132;28;20086;-91
2023/05/21 18:42:51;;;;;;;18.25;8.23;;;;;;;;;;6186679;28;20074;-83
2023/05/21 18:45:53;;;;;;;16.48;8.13;;;;;;;;;;6195727;28;20042;-83
2023/05/21 18:48:56;;;;;;;10.70;6.60;;;;;;;;;;6195934;28;20054;-79
2023/05/21 18:51:58;;;;;;;11.88;8.10;;;;;;;;;;6193867;28;20298;-88